sensor_id;sensor_type;location;lat;lon;timestamp;temperature;humidity
52575;DHT22;38468;48.114;-1.684;2023-01-04T00:00:26;12.80;88.50
52575;DHT22;38468;48.114;-1.684;2023-01-04T00:02:30;12.80;88.40
52575;DHT22;38468;48.114;-1.684;2023-01-04T00:04:31;12.80;88.40
52575;DHT22;38468;48.114;-1.684;2023-01-04T00:06:32;12.80;88.40
52575;DHT22;38468;48.114;-1.684;2023-01-04T00:08:33;12.80;88.40
52575;DHT22;38468;48.114;-1.684;2023-01-04T00:10:37;12.90;88.30
52575;DHT22;38468;48.114;-1.684;2023-01-04T00:12:37;12.90;88.30
52575;DHT22;38468;48.114;-1.684;2023-01-04T00:14:38;12.90;88.20
52575;DHT22;38468;48.114;-1.684;2023-01-04T00:16:39;12.90;88.10
52575;DHT22;38468;48.114;-1.684;2023-01-04T00:18:40;12.90;88.10
52575;DHT22;38468;48.114;-1.684;2023-01-04T00:20:41;12.90;88.20
52575;DHT22;38468;48.114;-1.684;2023-01-04T00:22:42;12.90;88.30
52575;DHT22;38468;48.114;-1.684;2023-01-04T00:24:46;12.80;88.30
52575;DHT22;38468;48.114;-1.684;2023-01-04T00:26:47;12.90;88.30
52575;DHT22;38468;48.114;-1.684;2023-01-04T00:28:52;12.90;88.30
52575;DHT22;38468;48.114;-1.684;2023-01-04T00:30:53;12.90;88.20
52575;DHT22;38468;48.114;-1.684;2023-01-04T00:32:56;12.90;88.10
52575;DHT22;38468;48.114;-1.684;2023-01-04T00:34:56;12.90;88.00
52575;DHT22;38468;48.114;-1.684;2023-01-04T00:36:57;12.90;88.00
52575;DHT22;38468;48.114;-1.684;2023-01-04T00:38:59;12.90;88.10
52575;DHT22;38468;48.114;-1.684;2023-01-04T00:41:07;12.90;88.10
52575;DHT22;38468;48.114;-1.684;2023-01-04T00:43:08;12.90;88.10
52575;DHT22;38468;48.114;-1.684;2023-01-04T00:45:09;12.90;88.20
52575;DHT22;38468;48.114;-1.684;2023-01-04T00:47:10;12.90;88.30
52575;DHT22;38468;48.114;-1.684;2023-01-04T00:49:10;12.90;88.40
52575;DHT22;38468;48.114;-1.684;2023-01-04T00:51:11;12.90;88.40
52575;DHT22;38468;48.114;-1.684;2023-01-04T00:53:13;12.80;88.70
52575;DHT22;38468;48.114;-1.684;2023-01-04T00:55:14;12.80;88.70
52575;DHT22;38468;48.114;-1.684;2023-01-04T00:57:15;12.90;88.70
52575;DHT22;38468;48.114;-1.684;2023-01-04T00:59:17;12.80;88.70
52575;DHT22;38468;48.114;-1.684;2023-01-04T01:01:18;12.90;88.80
52575;DHT22;38468;48.114;-1.684;2023-01-04T01:03:19;12.90;88.80
52575;DHT22;38468;48.114;-1.684;2023-01-04T01:05:20;12.80;88.80
52575;DHT22;38468;48.114;-1.684;2023-01-04T01:07:20;12.80;88.80
52575;DHT22;38468;48.114;-1.684;2023-01-04T01:09:21;12.90;88.80
52575;DHT22;38468;48.114;-1.684;2023-01-04T01:11:22;12.90;88.80
52575;DHT22;38468;48.114;-1.684;2023-01-04T01:13:23;12.90;88.70
52575;DHT22;38468;48.114;-1.684;2023-01-04T01:15:23;12.90;88.60
52575;DHT22;38468;48.114;-1.684;2023-01-04T01:17:24;12.90;88.50
52575;DHT22;38468;48.114;-1.684;2023-01-04T01:19:26;12.90;88.30
52575;DHT22;38468;48.114;-1.684;2023-01-04T01:21:27;13.00;88.20
52575;DHT22;38468;48.114;-1.684;2023-01-04T01:23:28;13.00;88.00
52575;DHT22;38468;48.114;-1.684;2023-01-04T01:25:32;13.00;87.90
52575;DHT22;38468;48.114;-1.684;2023-01-04T01:27:33;13.00;88.00
52575;DHT22;38468;48.114;-1.684;2023-01-04T01:29:33;13.00;88.10
52575;DHT22;38468;48.114;-1.684;2023-01-04T01:31:34;13.00;88.20
52575;DHT22;38468;48.114;-1.684;2023-01-04T01:33:36;12.90;88.20
52575;DHT22;38468;48.114;-1.684;2023-01-04T01:35:37;13.00;88.10
52575;DHT22;38468;48.114;-1.684;2023-01-04T01:37:37;13.00;88.00
52575;DHT22;38468;48.114;-1.684;2023-01-04T01:39:38;13.00;87.90
52575;DHT22;38468;48.114;-1.684;2023-01-04T01:41:39;13.00;87.90
52575;DHT22;38468;48.114;-1.684;2023-01-04T01:45:56;13.00;87.70
52575;DHT22;38468;48.114;-1.684;2023-01-04T01:48:09;13.00;87.50
52575;DHT22;38468;48.114;-1.684;2023-01-04T01:50:42;13.00;87.30
52575;DHT22;38468;48.114;-1.684;2023-01-04T01:52:43;13.00;87.20
52575;DHT22;38468;48.114;-1.684;2023-01-04T01:54:48;13.00;87.00
52575;DHT22;38468;48.114;-1.684;2023-01-04T01:56:50;13.00;86.90
52575;DHT22;38468;48.114;-1.684;2023-01-04T01:58:52;13.00;87.00
52575;DHT22;38468;48.114;-1.684;2023-01-04T02:00:54;13.00;87.10
52575;DHT22;38468;48.114;-1.684;2023-01-04T02:03:13;13.00;87.00
52575;DHT22;38468;48.114;-1.684;2023-01-04T02:05:16;13.00;87.10
52575;DHT22;38468;48.114;-1.684;2023-01-04T02:07:21;13.00;87.00
52575;DHT22;38468;48.114;-1.684;2023-01-04T02:09:23;13.00;87.10
52575;DHT22;38468;48.114;-1.684;2023-01-04T02:11:25;13.00;87.10
52575;DHT22;38468;48.114;-1.684;2023-01-04T02:13:28;12.90;87.20
52575;DHT22;38468;48.114;-1.684;2023-01-04T02:16:21;12.90;87.20
52575;DHT22;38468;48.114;-1.684;2023-01-04T02:18:36;12.90;87.10
52575;DHT22;38468;48.114;-1.684;2023-01-04T02:20:46;12.90;87.00
52575;DHT22;38468;48.114;-1.684;2023-01-04T02:23:13;12.90;86.90
52575;DHT22;38468;48.114;-1.684;2023-01-04T02:27:59;13.00;86.70
52575;DHT22;38468;48.114;-1.684;2023-01-04T02:30:30;12.90;86.70
52575;DHT22;38468;48.114;-1.684;2023-01-04T02:35:51;13.00;86.30
52575;DHT22;38468;48.114;-1.684;2023-01-04T02:44:55;13.00;86.00
52575;DHT22;38468;48.114;-1.684;2023-01-04T02:47:08;13.00;86.20
52575;DHT22;38468;48.114;-1.684;2023-01-04T02:49:09;13.00;86.50
52575;DHT22;38468;48.114;-1.684;2023-01-04T02:51:32;12.90;86.80
52575;DHT22;38468;48.114;-1.684;2023-01-04T02:53:36;12.90;87.10
52575;DHT22;38468;48.114;-1.684;2023-01-04T03:03:16;12.80;87.80
52575;DHT22;38468;48.114;-1.684;2023-01-04T03:08:17;12.80;87.90
52575;DHT22;38468;48.114;-1.684;2023-01-04T03:10:41;12.80;87.90
52575;DHT22;38468;48.114;-1.684;2023-01-04T03:13:08;12.80;87.90
52575;DHT22;38468;48.114;-1.684;2023-01-04T03:15:12;12.80;87.90
52575;DHT22;38468;48.114;-1.684;2023-01-04T03:17:19;12.80;87.80
52575;DHT22;38468;48.114;-1.684;2023-01-04T03:19:23;12.80;87.80
52575;DHT22;38468;48.114;-1.684;2023-01-04T03:21:43;12.80;87.70
52575;DHT22;38468;48.114;-1.684;2023-01-04T03:23:45;12.80;87.70
52575;DHT22;38468;48.114;-1.684;2023-01-04T03:26:09;12.80;87.60
52575;DHT22;38468;48.114;-1.684;2023-01-04T03:28:32;12.90;87.50
52575;DHT22;38468;48.114;-1.684;2023-01-04T03:30:57;12.90;87.30
52575;DHT22;38468;48.114;-1.684;2023-01-04T03:33:17;12.90;87.20
52575;DHT22;38468;48.114;-1.684;2023-01-04T03:35:52;12.90;87.00
52575;DHT22;38468;48.114;-1.684;2023-01-04T03:38:17;12.90;86.80
52575;DHT22;38468;48.114;-1.684;2023-01-04T03:40:45;12.90;86.70
52575;DHT22;38468;48.114;-1.684;2023-01-04T03:43:23;13.00;86.50
52575;DHT22;38468;48.114;-1.684;2023-01-04T03:46:04;12.90;86.40
52575;DHT22;38468;48.114;-1.684;2023-01-04T03:48:33;13.00;86.30
52575;DHT22;38468;48.114;-1.684;2023-01-04T03:50:41;13.00;86.20
52575;DHT22;38468;48.114;-1.684;2023-01-04T03:52:45;13.00;86.00
52575;DHT22;38468;48.114;-1.684;2023-01-04T03:54:47;13.00;85.90
52575;DHT22;38468;48.114;-1.684;2023-01-04T03:56:49;13.00;85.70
52575;DHT22;38468;48.114;-1.684;2023-01-04T03:58:51;13.00;85.60
52575;DHT22;38468;48.114;-1.684;2023-01-04T04:00:54;13.00;85.70
52575;DHT22;38468;48.114;-1.684;2023-01-04T04:03:05;13.00;85.80
52575;DHT22;38468;48.114;-1.684;2023-01-04T04:05:07;13.10;85.30
52575;DHT22;38468;48.114;-1.684;2023-01-04T04:07:28;13.10;85.40
52575;DHT22;38468;48.114;-1.684;2023-01-04T04:09:48;13.10;85.50
52575;DHT22;38468;48.114;-1.684;2023-01-04T04:11:49;13.10;85.40
52575;DHT22;38468;48.114;-1.684;2023-01-04T04:13:50;13.10;85.40
52575;DHT22;38468;48.114;-1.684;2023-01-04T04:15:53;13.10;85.50
52575;DHT22;38468;48.114;-1.684;2023-01-04T04:17:54;13.10;85.60
52575;DHT22;38468;48.114;-1.684;2023-01-04T04:19:54;13.10;85.60
52575;DHT22;38468;48.114;-1.684;2023-01-04T04:21:55;13.10;85.60
52575;DHT22;38468;48.114;-1.684;2023-01-04T04:23:56;13.00;85.80
52575;DHT22;38468;48.114;-1.684;2023-01-04T04:25:56;13.00;86.00
52575;DHT22;38468;48.114;-1.684;2023-01-04T04:27:57;13.00;86.20
52575;DHT22;38468;48.114;-1.684;2023-01-04T04:29:58;13.00;86.30
52575;DHT22;38468;48.114;-1.684;2023-01-04T04:31:58;13.00;86.50
52575;DHT22;38468;48.114;-1.684;2023-01-04T04:33:59;13.00;86.70
52575;DHT22;38468;48.114;-1.684;2023-01-04T04:36:00;13.00;86.80
52575;DHT22;38468;48.114;-1.684;2023-01-04T04:38:01;13.00;86.90
52575;DHT22;38468;48.114;-1.684;2023-01-04T04:40:04;13.00;87.20
52575;DHT22;38468;48.114;-1.684;2023-01-04T04:42:05;13.00;87.30
52575;DHT22;38468;48.114;-1.684;2023-01-04T04:44:07;12.90;87.50
52575;DHT22;38468;48.114;-1.684;2023-01-04T04:46:08;13.00;87.80
52575;DHT22;38468;48.114;-1.684;2023-01-04T04:48:09;12.90;88.00
52575;DHT22;38468;48.114;-1.684;2023-01-04T04:50:09;12.90;88.00
52575;DHT22;38468;48.114;-1.684;2023-01-04T04:52:10;12.90;88.20
52575;DHT22;38468;48.114;-1.684;2023-01-04T04:54:15;12.90;88.30
52575;DHT22;38468;48.114;-1.684;2023-01-04T04:56:16;12.90;88.30
52575;DHT22;38468;48.114;-1.684;2023-01-04T04:58:17;12.90;88.20
52575;DHT22;38468;48.114;-1.684;2023-01-04T05:00:17;12.90;88.20
52575;DHT22;38468;48.114;-1.684;2023-01-04T05:02:18;12.90;88.10
52575;DHT22;38468;48.114;-1.684;2023-01-04T05:04:19;12.90;88.10
52575;DHT22;38468;48.114;-1.684;2023-01-04T05:06:19;13.00;87.90
52575;DHT22;38468;48.114;-1.684;2023-01-04T05:08:20;13.00;87.90
52575;DHT22;38468;48.114;-1.684;2023-01-04T05:10:20;13.00;87.80
52575;DHT22;38468;48.114;-1.684;2023-01-04T05:12:21;13.00;87.80
52575;DHT22;38468;48.114;-1.684;2023-01-04T05:15:01;13.00;87.50
52575;DHT22;38468;48.114;-1.684;2023-01-04T05:17:02;13.00;87.20
52575;DHT22;38468;48.114;-1.684;2023-01-04T05:19:03;13.10;87.20
52575;DHT22;38468;48.114;-1.684;2023-01-04T05:21:03;13.10;87.20
52575;DHT22;38468;48.114;-1.684;2023-01-04T05:23:05;13.10;87.20
52575;DHT22;38468;48.114;-1.684;2023-01-04T05:25:06;13.10;87.10
52575;DHT22;38468;48.114;-1.684;2023-01-04T05:27:07;13.10;87.10
52575;DHT22;38468;48.114;-1.684;2023-01-04T05:29:08;13.10;87.00
52575;DHT22;38468;48.114;-1.684;2023-01-04T05:31:29;13.20;86.70
52575;DHT22;38468;48.114;-1.684;2023-01-04T05:33:31;13.20;86.70
52575;DHT22;38468;48.114;-1.684;2023-01-04T05:35:32;13.10;86.80
52575;DHT22;38468;48.114;-1.684;2023-01-04T05:37:32;13.20;86.60
52575;DHT22;38468;48.114;-1.684;2023-01-04T05:39:33;13.20;86.60
52575;DHT22;38468;48.114;-1.684;2023-01-04T05:41:33;13.20;86.50
52575;DHT22;38468;48.114;-1.684;2023-01-04T05:43:57;13.20;86.60
52575;DHT22;38468;48.114;-1.684;2023-01-04T05:45:58;13.20;86.40
52575;DHT22;38468;48.114;-1.684;2023-01-04T05:47:58;13.20;86.60
52575;DHT22;38468;48.114;-1.684;2023-01-04T05:49:59;13.20;86.80
52575;DHT22;38468;48.114;-1.684;2023-01-04T05:52:00;13.20;87.00
52575;DHT22;38468;48.114;-1.684;2023-01-04T05:54:00;13.20;87.00
52575;DHT22;38468;48.114;-1.684;2023-01-04T05:56:01;13.10;87.10
52575;DHT22;38468;48.114;-1.684;2023-01-04T05:58:02;13.10;87.10
52575;DHT22;38468;48.114;-1.684;2023-01-04T06:00:04;13.10;87.10
52575;DHT22;38468;48.114;-1.684;2023-01-04T06:02:06;13.10;87.00
52575;DHT22;38468;48.114;-1.684;2023-01-04T06:04:06;13.10;87.20
52575;DHT22;38468;48.114;-1.684;2023-01-04T06:06:07;13.10;87.20
52575;DHT22;38468;48.114;-1.684;2023-01-04T06:08:08;13.10;87.30
52575;DHT22;38468;48.114;-1.684;2023-01-04T06:10:10;13.10;87.30
52575;DHT22;38468;48.114;-1.684;2023-01-04T06:12:11;13.10;87.30
52575;DHT22;38468;48.114;-1.684;2023-01-04T06:14:12;13.10;87.30
52575;DHT22;38468;48.114;-1.684;2023-01-04T06:16:13;13.10;87.30
52575;DHT22;38468;48.114;-1.684;2023-01-04T06:18:13;13.10;87.20
52575;DHT22;38468;48.114;-1.684;2023-01-04T06:20:14;13.10;87.20
52575;DHT22;38468;48.114;-1.684;2023-01-04T06:22:15;13.10;87.20
52575;DHT22;38468;48.114;-1.684;2023-01-04T06:24:16;13.10;87.10
52575;DHT22;38468;48.114;-1.684;2023-01-04T06:26:16;13.10;87.20
52575;DHT22;38468;48.114;-1.684;2023-01-04T06:28:17;13.10;87.20
52575;DHT22;38468;48.114;-1.684;2023-01-04T06:30:18;13.20;87.10
52575;DHT22;38468;48.114;-1.684;2023-01-04T06:32:18;13.20;87.00
52575;DHT22;38468;48.114;-1.684;2023-01-04T06:34:19;13.20;87.00
52575;DHT22;38468;48.114;-1.684;2023-01-04T06:36:19;13.20;87.10
52575;DHT22;38468;48.114;-1.684;2023-01-04T06:38:20;13.20;87.10
52575;DHT22;38468;48.114;-1.684;2023-01-04T06:40:21;13.10;87.10
52575;DHT22;38468;48.114;-1.684;2023-01-04T06:42:22;13.20;87.20
52575;DHT22;38468;48.114;-1.684;2023-01-04T06:44:41;13.20;87.10
52575;DHT22;38468;48.114;-1.684;2023-01-04T06:46:41;13.20;87.20
52575;DHT22;38468;48.114;-1.684;2023-01-04T06:48:42;13.20;87.20
52575;DHT22;38468;48.114;-1.684;2023-01-04T06:50:42;13.20;87.20
52575;DHT22;38468;48.114;-1.684;2023-01-04T06:52:43;13.20;87.20
52575;DHT22;38468;48.114;-1.684;2023-01-04T06:54:44;13.20;87.10
52575;DHT22;38468;48.114;-1.684;2023-01-04T06:56:44;13.20;87.10
52575;DHT22;38468;48.114;-1.684;2023-01-04T06:58:45;13.20;87.10
52575;DHT22;38468;48.114;-1.684;2023-01-04T07:00:45;13.20;87.00
52575;DHT22;38468;48.114;-1.684;2023-01-04T07:02:46;13.30;87.10
52575;DHT22;38468;48.114;-1.684;2023-01-04T07:04:47;13.20;87.00
52575;DHT22;38468;48.114;-1.684;2023-01-04T07:06:47;13.30;87.00
52575;DHT22;38468;48.114;-1.684;2023-01-04T07:08:48;13.30;87.00
52575;DHT22;38468;48.114;-1.684;2023-01-04T07:10:49;13.30;87.00
52575;DHT22;38468;48.114;-1.684;2023-01-04T07:12:50;13.30;87.10
52575;DHT22;38468;48.114;-1.684;2023-01-04T07:14:50;13.20;87.20
52575;DHT22;38468;48.114;-1.684;2023-01-04T07:16:51;13.20;87.20
52575;DHT22;38468;48.114;-1.684;2023-01-04T07:18:51;13.30;87.30
52575;DHT22;38468;48.114;-1.684;2023-01-04T07:20:52;13.20;87.30
52575;DHT22;38468;48.114;-1.684;2023-01-04T07:22:53;13.30;87.30
52575;DHT22;38468;48.114;-1.684;2023-01-04T07:24:53;13.30;87.40
52575;DHT22;38468;48.114;-1.684;2023-01-04T07:26:54;13.30;87.30
52575;DHT22;38468;48.114;-1.684;2023-01-04T07:28:54;13.20;87.30
52575;DHT22;38468;48.114;-1.684;2023-01-04T07:31:13;13.30;87.40
52575;DHT22;38468;48.114;-1.684;2023-01-04T07:33:14;13.30;87.40
52575;DHT22;38468;48.114;-1.684;2023-01-04T07:35:14;13.20;87.40
52575;DHT22;38468;48.114;-1.684;2023-01-04T07:37:16;13.30;87.40
52575;DHT22;38468;48.114;-1.684;2023-01-04T07:39:17;13.30;87.40
52575;DHT22;38468;48.114;-1.684;2023-01-04T07:41:18;13.30;87.40
52575;DHT22;38468;48.114;-1.684;2023-01-04T07:43:19;13.30;87.30
52575;DHT22;38468;48.114;-1.684;2023-01-04T07:45:19;13.40;87.20
52575;DHT22;38468;48.114;-1.684;2023-01-04T07:47:20;13.40;87.20
52575;DHT22;38468;48.114;-1.684;2023-01-04T07:49:21;13.40;87.00
52575;DHT22;38468;48.114;-1.684;2023-01-04T07:51:22;13.40;87.10
52575;DHT22;38468;48.114;-1.684;2023-01-04T07:53:23;13.40;87.10
52575;DHT22;38468;48.114;-1.684;2023-01-04T07:55:23;13.40;87.10
52575;DHT22;38468;48.114;-1.684;2023-01-04T07:57:24;13.40;86.90
52575;DHT22;38468;48.114;-1.684;2023-01-04T07:59:24;13.40;86.90
52575;DHT22;38468;48.114;-1.684;2023-01-04T08:01:26;13.40;86.90
52575;DHT22;38468;48.114;-1.684;2023-01-04T08:03:26;13.50;86.90
52575;DHT22;38468;48.114;-1.684;2023-01-04T08:05:27;13.40;87.10
52575;DHT22;38468;48.114;-1.684;2023-01-04T08:07:30;13.40;87.20
52575;DHT22;38468;48.114;-1.684;2023-01-04T08:09:31;13.40;87.30
52575;DHT22;38468;48.114;-1.684;2023-01-04T08:11:32;13.40;87.40
52575;DHT22;38468;48.114;-1.684;2023-01-04T08:13:33;13.40;87.50
52575;DHT22;38468;48.114;-1.684;2023-01-04T08:15:34;13.40;87.60
52575;DHT22;38468;48.114;-1.684;2023-01-04T08:17:34;13.40;87.70
52575;DHT22;38468;48.114;-1.684;2023-01-04T08:19:35;13.40;87.80
52575;DHT22;38468;48.114;-1.684;2023-01-04T08:21:36;13.40;87.90
52575;DHT22;38468;48.114;-1.684;2023-01-04T08:23:37;13.30;88.00
52575;DHT22;38468;48.114;-1.684;2023-01-04T08:25:38;13.40;88.10
52575;DHT22;38468;48.114;-1.684;2023-01-04T08:27:39;13.30;88.10
52575;DHT22;38468;48.114;-1.684;2023-01-04T08:29:41;13.30;88.20
52575;DHT22;38468;48.114;-1.684;2023-01-04T08:31:42;13.30;88.20
52575;DHT22;38468;48.114;-1.684;2023-01-04T08:33:43;13.40;88.10
52575;DHT22;38468;48.114;-1.684;2023-01-04T08:35:44;13.30;88.10
52575;DHT22;38468;48.114;-1.684;2023-01-04T08:37:44;13.30;88.20
52575;DHT22;38468;48.114;-1.684;2023-01-04T08:39:45;13.40;88.20
52575;DHT22;38468;48.114;-1.684;2023-01-04T08:41:46;13.30;88.20
52575;DHT22;38468;48.114;-1.684;2023-01-04T08:43:55;13.40;88.10
52575;DHT22;38468;48.114;-1.684;2023-01-04T08:45:56;13.40;88.10
52575;DHT22;38468;48.114;-1.684;2023-01-04T08:47:57;13.30;88.10
52575;DHT22;38468;48.114;-1.684;2023-01-04T08:49:58;13.40;88.20
52575;DHT22;38468;48.114;-1.684;2023-01-04T08:51:59;13.30;88.20
52575;DHT22;38468;48.114;-1.684;2023-01-04T08:54:00;13.40;88.30
52575;DHT22;38468;48.114;-1.684;2023-01-04T08:56:00;13.30;88.40
52575;DHT22;38468;48.114;-1.684;2023-01-04T08:58:02;13.30;88.40
52575;DHT22;38468;48.114;-1.684;2023-01-04T09:00:03;13.40;88.40
52575;DHT22;38468;48.114;-1.684;2023-01-04T09:02:17;13.30;88.50
52575;DHT22;38468;48.114;-1.684;2023-01-04T09:04:19;13.30;88.50
52575;DHT22;38468;48.114;-1.684;2023-01-04T09:06:19;13.30;88.50
52575;DHT22;38468;48.114;-1.684;2023-01-04T09:08:20;13.40;88.50
52575;DHT22;38468;48.114;-1.684;2023-01-04T09:10:21;13.40;88.40
52575;DHT22;38468;48.114;-1.684;2023-01-04T09:12:22;13.40;88.30
52575;DHT22;38468;48.114;-1.684;2023-01-04T09:14:23;13.40;88.20
52575;DHT22;38468;48.114;-1.684;2023-01-04T09:16:24;13.50;87.90
52575;DHT22;38468;48.114;-1.684;2023-01-04T09:18:25;13.50;87.50
52575;DHT22;38468;48.114;-1.684;2023-01-04T09:20:26;13.50;87.20
52575;DHT22;38468;48.114;-1.684;2023-01-04T09:22:29;13.50;86.90
52575;DHT22;38468;48.114;-1.684;2023-01-04T09:24:32;13.50;86.70
52575;DHT22;38468;48.114;-1.684;2023-01-04T09:26:32;13.60;86.40
52575;DHT22;38468;48.114;-1.684;2023-01-04T09:28:33;13.60;86.50
52575;DHT22;38468;48.114;-1.684;2023-01-04T09:30:34;13.60;86.20
52575;DHT22;38468;48.114;-1.684;2023-01-04T09:32:35;13.70;86.10
52575;DHT22;38468;48.114;-1.684;2023-01-04T09:34:35;13.60;86.30
52575;DHT22;38468;48.114;-1.684;2023-01-04T09:36:36;13.70;86.30
52575;DHT22;38468;48.114;-1.684;2023-01-04T09:38:37;13.60;86.40
52575;DHT22;38468;48.114;-1.684;2023-01-04T09:40:53;13.70;86.40
52575;DHT22;38468;48.114;-1.684;2023-01-04T09:42:55;13.60;86.40
52575;DHT22;38468;48.114;-1.684;2023-01-04T09:45:01;13.60;86.40
52575;DHT22;38468;48.114;-1.684;2023-01-04T09:49:42;13.70;86.20
52575;DHT22;38468;48.114;-1.684;2023-01-04T09:54:19;13.70;85.70
52575;DHT22;38468;48.114;-1.684;2023-01-04T09:56:22;13.70;85.60
52575;DHT22;38468;48.114;-1.684;2023-01-04T09:58:35;13.80;85.40
52575;DHT22;38468;48.114;-1.684;2023-01-04T10:00:39;13.80;85.20
52575;DHT22;38468;48.114;-1.684;2023-01-04T10:02:48;13.80;85.20
52575;DHT22;38468;48.114;-1.684;2023-01-04T10:04:50;13.80;85.10
52575;DHT22;38468;48.114;-1.684;2023-01-04T10:06:51;13.80;84.90
52575;DHT22;38468;48.114;-1.684;2023-01-04T10:08:55;13.80;84.80
52575;DHT22;38468;48.114;-1.684;2023-01-04T10:15:36;13.90;84.80
52575;DHT22;38468;48.114;-1.684;2023-01-04T10:30:36;13.90;84.30
52575;DHT22;38468;48.114;-1.684;2023-01-04T10:32:42;14.00;84.50
52575;DHT22;38468;48.114;-1.684;2023-01-04T10:34:45;14.00;84.30
52575;DHT22;38468;48.114;-1.684;2023-01-04T10:36:46;14.00;84.30
52575;DHT22;38468;48.114;-1.684;2023-01-04T10:38:57;14.00;84.30
52575;DHT22;38468;48.114;-1.684;2023-01-04T10:41:06;14.00;84.30
52575;DHT22;38468;48.114;-1.684;2023-01-04T10:43:44;14.00;84.30
52575;DHT22;38468;48.114;-1.684;2023-01-04T10:45:59;14.00;84.30
52575;DHT22;38468;48.114;-1.684;2023-01-04T10:50:13;14.00;84.50
52575;DHT22;38468;48.114;-1.684;2023-01-04T10:52:32;14.00;84.40
52575;DHT22;38468;48.114;-1.684;2023-01-04T10:54:50;14.00;84.30
52575;DHT22;38468;48.114;-1.684;2023-01-04T10:56:59;14.00;84.30
52575;DHT22;38468;48.114;-1.684;2023-01-04T10:59:21;14.00;84.50
52575;DHT22;38468;48.114;-1.684;2023-01-04T11:01:38;14.00;84.40
52575;DHT22;38468;48.114;-1.684;2023-01-04T11:03:57;14.00;84.50
52575;DHT22;38468;48.114;-1.684;2023-01-04T11:06:26;14.00;84.60
52575;DHT22;38468;48.114;-1.684;2023-01-04T11:10:54;14.10;84.60
52575;DHT22;38468;48.114;-1.684;2023-01-04T11:12:56;14.00;84.60
52575;DHT22;38468;48.114;-1.684;2023-01-04T11:14:57;14.10;84.80
52575;DHT22;38468;48.114;-1.684;2023-01-04T11:17:00;14.10;84.90
52575;DHT22;38468;48.114;-1.684;2023-01-04T11:19:03;14.10;84.90
52575;DHT22;38468;48.114;-1.684;2023-01-04T11:21:08;14.10;84.80
52575;DHT22;38468;48.114;-1.684;2023-01-04T11:23:17;14.00;84.90
52575;DHT22;38468;48.114;-1.684;2023-01-04T11:25:20;14.10;85.10
52575;DHT22;38468;48.114;-1.684;2023-01-04T11:27:26;14.10;85.00
52575;DHT22;38468;48.114;-1.684;2023-01-04T11:31:49;14.10;85.10
52575;DHT22;38468;48.114;-1.684;2023-01-04T11:34:02;14.10;85.00
52575;DHT22;38468;48.114;-1.684;2023-01-04T11:36:03;14.10;85.00
52575;DHT22;38468;48.114;-1.684;2023-01-04T11:38:11;14.10;85.00
52575;DHT22;38468;48.114;-1.684;2023-01-04T11:42:20;14.10;85.00
52575;DHT22;38468;48.114;-1.684;2023-01-04T11:44:21;14.20;85.10
52575;DHT22;38468;48.114;-1.684;2023-01-04T11:46:23;14.10;85.00
52575;DHT22;38468;48.114;-1.684;2023-01-04T11:48:50;14.20;85.10
52575;DHT22;38468;48.114;-1.684;2023-01-04T11:50:51;14.20;85.10
52575;DHT22;38468;48.114;-1.684;2023-01-04T11:52:55;14.10;85.20
52575;DHT22;38468;48.114;-1.684;2023-01-04T11:54:56;14.10;85.20
52575;DHT22;38468;48.114;-1.684;2023-01-04T11:57:04;14.10;85.20
52575;DHT22;38468;48.114;-1.684;2023-01-04T12:01:23;14.20;85.30
52575;DHT22;38468;48.114;-1.684;2023-01-04T12:03:27;14.20;85.40
52575;DHT22;38468;48.114;-1.684;2023-01-04T12:05:29;14.20;85.40
52575;DHT22;38468;48.114;-1.684;2023-01-04T12:07:34;14.20;85.50
52575;DHT22;38468;48.114;-1.684;2023-01-04T12:09:35;14.20;85.50
52575;DHT22;38468;48.114;-1.684;2023-01-04T12:11:41;14.10;85.70
52575;DHT22;38468;48.114;-1.684;2023-01-04T12:13:42;14.10;85.80
52575;DHT22;38468;48.114;-1.684;2023-01-04T12:17:57;14.10;86.00
52575;DHT22;38468;48.114;-1.684;2023-01-04T12:20:00;14.10;86.00
52575;DHT22;38468;48.114;-1.684;2023-01-04T12:22:03;14.10;86.10
52575;DHT22;38468;48.114;-1.684;2023-01-04T12:24:20;14.10;86.20
52575;DHT22;38468;48.114;-1.684;2023-01-04T12:26:21;14.10;86.20
52575;DHT22;38468;48.114;-1.684;2023-01-04T12:28:28;14.10;86.20
52575;DHT22;38468;48.114;-1.684;2023-01-04T12:39:00;14.10;86.40
52575;DHT22;38468;48.114;-1.684;2023-01-04T12:41:01;14.10;86.50
52575;DHT22;38468;48.114;-1.684;2023-01-04T12:45:16;14.20;86.40
52575;DHT22;38468;48.114;-1.684;2023-01-04T12:54:21;14.20;86.00
52575;DHT22;38468;48.114;-1.684;2023-01-04T12:56:23;14.20;85.90
52575;DHT22;38468;48.114;-1.684;2023-01-04T12:59:10;14.30;85.90
52575;DHT22;38468;48.114;-1.684;2023-01-04T13:01:22;14.30;85.90
52575;DHT22;38468;48.114;-1.684;2023-01-04T13:05:36;14.30;85.60
52575;DHT22;38468;48.114;-1.684;2023-01-04T13:09:50;14.40;85.60
52575;DHT22;38468;48.114;-1.684;2023-01-04T13:12:14;14.40;85.40
52575;DHT22;38468;48.114;-1.684;2023-01-04T13:14:42;14.30;85.30
52575;DHT22;38468;48.114;-1.684;2023-01-04T13:18:58;14.40;85.10
52575;DHT22;38468;48.114;-1.684;2023-01-04T13:21:12;14.40;84.90
52575;DHT22;38468;48.114;-1.684;2023-01-04T13:23:15;14.40;84.90
52575;DHT22;38468;48.114;-1.684;2023-01-04T13:25:17;14.40;84.70
52575;DHT22;38468;48.114;-1.684;2023-01-04T13:27:22;14.40;84.70
52575;DHT22;38468;48.114;-1.684;2023-01-04T13:29:26;14.40;84.60
52575;DHT22;38468;48.114;-1.684;2023-01-04T13:31:27;14.40;84.30
52575;DHT22;38468;48.114;-1.684;2023-01-04T13:33:28;14.40;84.20
52575;DHT22;38468;48.114;-1.684;2023-01-04T13:35:29;14.40;84.20
52575;DHT22;38468;48.114;-1.684;2023-01-04T13:37:36;14.40;84.00
52575;DHT22;38468;48.114;-1.684;2023-01-04T13:39:43;14.40;84.00
52575;DHT22;38468;48.114;-1.684;2023-01-04T13:41:44;14.40;83.70
52575;DHT22;38468;48.114;-1.684;2023-01-04T13:44:10;14.40;83.70
52575;DHT22;38468;48.114;-1.684;2023-01-04T13:46:19;14.40;83.70
52575;DHT22;38468;48.114;-1.684;2023-01-04T13:48:22;14.40;83.80
52575;DHT22;38468;48.114;-1.684;2023-01-04T13:52:30;14.40;83.70
52575;DHT22;38468;48.114;-1.684;2023-01-04T13:54:31;14.40;83.70
52575;DHT22;38468;48.114;-1.684;2023-01-04T13:56:33;14.40;83.70
52575;DHT22;38468;48.114;-1.684;2023-01-04T13:58:34;14.40;83.80
52575;DHT22;38468;48.114;-1.684;2023-01-04T14:00:50;14.40;83.80
52575;DHT22;38468;48.114;-1.684;2023-01-04T14:03:10;14.40;83.80
52575;DHT22;38468;48.114;-1.684;2023-01-04T14:05:18;14.40;83.80
52575;DHT22;38468;48.114;-1.684;2023-01-04T14:07:20;14.40;83.90
52575;DHT22;38468;48.114;-1.684;2023-01-04T14:09:26;14.40;84.00
52575;DHT22;38468;48.114;-1.684;2023-01-04T14:11:32;14.40;84.00
52575;DHT22;38468;48.114;-1.684;2023-01-04T14:13:52;14.40;84.00
52575;DHT22;38468;48.114;-1.684;2023-01-04T14:16:11;14.40;84.10
52575;DHT22;38468;48.114;-1.684;2023-01-04T14:18:32;14.40;84.10
52575;DHT22;38468;48.114;-1.684;2023-01-04T14:20:35;14.40;84.40
52575;DHT22;38468;48.114;-1.684;2023-01-04T14:22:41;14.40;84.30
52575;DHT22;38468;48.114;-1.684;2023-01-04T14:24:50;14.30;83.80